Bookmark and Share
Track history (hours):
 

Tms Max

Last reported at 2014-Apr-23 06:33 UTC. Time now 2014-Apr-23 06:45 UTC.
Position N 48°55' E 008°10'.

Length 105 m; draft 0.2 m.

Type: Ship. MMSI: 211516070.

NotesDate/timePositionNaut miles runAvg speedWind from/ knotsBaromVisibWave heightAir tempDewpointWater temp
2014-Apr-23 06:33N 48°55' E 008°10'7 4.8
2014-Apr-23 05:10N 48°49' E 008°06'4 7.1
2014-Apr-23 04:33N 48°46' E 008°01'6 5.5
2014-Apr-23 03:23N 48°41' E 007°55'  
2014-Apr-18 08:31N 48°41' E 007°55'6 6.0
2014-Apr-18 07:33N 48°46' E 008°01'7 5.0
2014-Apr-18 06:08N 48°51' E 008°07'2 3.0
2014-Apr-18 05:30N 48°53' E 008°08'3 3.3
2014-Apr-18 04:33N 48°56' E 008°10'3 3.3
2014-Apr-18 03:33N 48°58' E 008°14'3 3.4
2014-Apr-18 02:33N 49°00' E 008°18'4 3.8
2014-Apr-18 01:33N 49°04' E 008°19'4 3.8
2014-Apr-18 00:33N 49°07' E 008°22'3 3.5
2014-Apr-17 23:33N 49°11' E 008°23'4 3.9
2014-Apr-17 22:33N 49°15' E 008°24'4 4.0
2014-Apr-17 21:31N 49°17' E 008°29'3 3.3
2014-Apr-17 20:32N 49°20' E 008°28'110 3.4
2014-Apr-16 12:29N 50°55' E 006°59'18 3.4
2014-Apr-16 07:23N 51°11' E 006°48'3 3.7
2014-Apr-16 06:33N 51°13' E 006°44'2 2.4
2014-Apr-16 05:33N 51°15' E 006°46'58 3.4
2014-Apr-15 12:34N 51°54' E 005°37'6 5.8
2014-Apr-15 11:34N 51°54' E 005°27'6 6.4
2014-Apr-15 10:34N 51°58' E 005°19'9 8.6
2014-Apr-15 09:34N 52°02' E 005°07'8 8.4
2014-Apr-15 08:34N 52°10' E 004°60'9 8.7
2014-Apr-15 07:34N 52°18' E 005°01'7 6.6
2014-Apr-15 06:34N 52°23' E 004°54'2 2.4
2014-Apr-15 05:33N 52°24' E 004°51'0 0.0
2014-Apr-15 03:34N 52°24' E 004°51'0 0.0
2014-Apr-15 02:34N 52°24' E 004°51'0 0.0
2014-Apr-15 01:34N 52°24' E 004°51'0 0.0
2014-Apr-15 00:34N 52°24' E 004°51'0 0.0
2014-Apr-14 23:34N 52°24' E 004°51'0 0.0
2014-Apr-14 22:34N 52°24' E 004°51'0 0.0
2014-Apr-14 21:34N 52°24' E 004°51'0 0.0
2014-Apr-14 20:34N 52°24' E 004°51'5 5.0
2014-Apr-14 19:34N 52°22' E 004°58'9 8.7
2014-Apr-14 18:34N 52°13' E 005°00'9 9.3
2014-Apr-14 17:34N 52°04' E 005°05'10 9.7
2014-Apr-14 16:34N 51°58' E 005°18'6 5.5
2014-Apr-14 15:33N 51°55' E 005°26'20 9.6
2014-Apr-14 13:31N 51°52' E 005°57'46 7.6
2014-Apr-14 07:29N 51°16' E 006°42'6 6.4
2014-Apr-14 06:34N 51°11' E 006°47'16 1.8
2014-Apr-13 21:31N 50°56' E 006°58'110 7.6
2014-Apr-13 07:05N 49°23' E 008°30'  

Dump ship's entire track history

sailing weather and tide predictions

Tms Max — DJ2142 — position and weather